createdAt,value
2022-08-28T00:00:21.054Z,99692.09
2022-08-28T00:02:48.155Z,99693.84
2022-08-28T00:05:17.252Z,99692.34
2022-08-28T00:07:47.670Z,99618.47
2022-08-28T00:10:17.001Z,99674.59
2022-08-28T00:12:45.642Z,99690.47
2022-08-28T00:15:17.098Z,99697.84
2022-08-28T00:17:44.042Z,99702.25
2022-08-28T00:20:13.315Z,99698.19
2022-08-28T00:22:40.739Z,99698.44
2022-08-28T00:25:09.777Z,99706.34
2022-08-28T00:27:54.981Z,99711.13
2022-08-28T00:30:24.312Z,99707.78
2022-08-28T00:32:52.823Z,99712.78
2022-08-28T00:35:20.351Z,99699.91
2022-08-28T00:37:48.204Z,99701.56
2022-08-28T00:40:18.708Z,99694.66
2022-08-28T00:42:56.106Z,99690.75
2022-08-28T00:45:24.244Z,99689.38
2022-08-28T00:47:51.391Z,99685.53
2022-08-28T00:50:22.432Z,99700.03
2022-08-28T00:52:55.603Z,99693.25
2022-08-28T00:55:25.015Z,99691.59
2022-08-28T00:57:55.014Z,99684.38
2022-08-28T01:00:30.976Z,99692.47
2022-08-28T01:02:58.288Z,99699.34
2022-08-28T01:05:25.820Z,99626.25
2022-08-28T01:07:54.021Z,99689.31
2022-08-28T01:10:23.266Z,99700.75
2022-08-28T01:12:50.843Z,99693.56
2022-08-28T01:15:21.637Z,99700.50
2022-08-28T01:17:53.100Z,99704.72
2022-08-28T01:20:24.817Z,99704.63
2022-08-28T01:23:10.729Z,99703.66
2022-08-28T01:25:39.081Z,99688.84
2022-08-28T01:28:10.436Z,99690.81
2022-08-28T01:30:37.060Z,99687.06
2022-08-28T01:33:04.369Z,99685.91
2022-08-28T01:35:34.554Z,99691.66
2022-08-28T01:38:01.768Z,99692.97
2022-08-28T01:40:36.344Z,99688.31
2022-08-28T01:43:23.607Z,99689.13
2022-08-28T01:46:01.931Z,99679.81
2022-08-28T01:48:31.838Z,99679.34
2022-08-28T01:50:58.867Z,99689.97
2022-08-28T01:53:32.550Z,99674.28
2022-08-28T01:56:01.862Z,99675.94
2022-08-28T01:58:29.215Z,99676.56
2022-08-28T02:00:57.505Z,99675.50
2022-08-28T02:03:24.642Z,99675.31
2022-08-28T02:05:51.451Z,99684.41
2022-08-28T02:08:18.338Z,99679.59
2022-08-28T02:10:45.612Z,99676.47
2022-08-28T02:13:12.796Z,99673.81
2022-08-28T02:15:40.898Z,99675.00
2022-08-28T02:18:08.527Z,99682.22
2022-08-28T02:20:35.451Z,99680.06
2022-08-28T02:23:02.171Z,99695.63
2022-08-28T02:25:30.015Z,99682.84
2022-08-28T02:27:57.090Z,99690.50
2022-08-28T02:30:23.684Z,99687.25
2022-08-28T02:32:50.881Z,99678.69
2022-08-28T02:35:18.888Z,99678.88
2022-08-28T02:37:47.625Z,99684.22
2022-08-28T02:40:15.985Z,99677.19
2022-08-28T02:42:42.652Z,99677.97
2022-08-28T02:45:11.740Z,99684.91
2022-08-28T02:47:43.156Z,99682.06
2022-08-28T02:50:13.067Z,99683.94
2022-08-28T02:52:40.631Z,99682.72
2022-08-28T02:55:08.909Z,99680.91
2022-08-28T02:57:35.647Z,99674.66
2022-08-28T03:00:07.345Z,99676.41
2022-08-28T03:02:34.207Z,99681.53
2022-08-28T03:05:00.853Z,99682.00
2022-08-28T03:07:28.858Z,99685.72
2022-08-28T03:09:55.567Z,99696.63
2022-08-28T03:12:24.219Z,99702.66
2022-08-28T03:14:52.087Z,99705.69
2022-08-28T03:17:19.768Z,99701.44
2022-08-28T03:19:46.311Z,99699.16
2022-08-28T03:22:13.071Z,99691.69
2022-08-28T03:24:39.685Z,99695.69
2022-08-28T03:27:06.286Z,99691.88
2022-08-28T03:29:32.799Z,99693.22
2022-08-28T03:32:00.358Z,99693.56
2022-08-28T03:34:27.104Z,99699.06
2022-08-28T03:36:53.623Z,99693.97
2022-08-28T03:39:20.226Z,99699.22
2022-08-28T03:41:46.756Z,99704.00
2022-08-28T03:44:13.537Z,99698.41
2022-08-28T03:46:40.182Z,99687.28
2022-08-28T03:49:06.782Z,99690.56
2022-08-28T03:51:34.722Z,99637.78
2022-08-28T03:54:02.852Z,99690.38
2022-08-28T03:56:30.709Z,99698.56
2022-08-28T03:59:00.928Z,99702.38
2022-08-28T04:01:28.115Z,99706.53
2022-08-28T04:03:54.787Z,99707.19
2022-08-28T04:06:21.354Z,99708.16
2022-08-28T04:08:48.499Z,99707.63
2022-08-28T04:11:15.207Z,99709.19
2022-08-28T04:13:42.105Z,99715.56
2022-08-28T04:16:12.525Z,99718.09
2022-08-28T04:18:41.614Z,99724.03
2022-08-28T04:21:17.971Z,99732.69
2022-08-28T04:23:46.208Z,99725.88
2022-08-28T04:26:16.407Z,99718.47
2022-08-28T04:28:43.915Z,99714.16
2022-08-28T04:31:11.078Z,99721.19
2022-08-28T04:33:38.425Z,99730.53
2022-08-28T04:36:08.540Z,99734.72
2022-08-28T04:38:35.273Z,99728.59
2022-08-28T04:41:06.051Z,99729.69
2022-08-28T04:43:32.789Z,99735.03
2022-08-28T04:45:59.864Z,99732.53
2022-08-28T04:48:26.497Z,99733.63
2022-08-28T04:50:53.071Z,99735.16
2022-08-28T04:53:20.512Z,99728.03
2022-08-28T04:55:54.440Z,99738.34
2022-08-28T04:58:23.988Z,99738.41
2022-08-28T05:00:52.491Z,99736.91
2022-08-28T05:03:19.843Z,99733.34
2022-08-28T05:05:54.034Z,99745.31
2022-08-28T05:08:23.408Z,99733.31
2022-08-28T05:10:50.982Z,99734.06
2022-08-28T05:13:18.563Z,99733.06
2022-08-28T05:15:47.774Z,99738.97
2022-08-28T05:18:15.841Z,99727.28
2022-08-28T05:20:45.177Z,99726.19
2022-08-28T05:23:12.846Z,99730.34
2022-08-28T05:25:46.074Z,99740.66
2022-08-28T05:28:13.929Z,99744.56
2022-08-28T05:30:45.035Z,99751.56
2022-08-28T05:33:13.361Z,99745.88
2022-08-28T05:35:43.768Z,99744.47
2022-08-28T05:38:11.523Z,99755.44
2022-08-28T05:40:46.374Z,99747.34
2022-08-28T05:43:14.978Z,99752.44
2022-08-28T05:45:41.700Z,99758.63
2022-08-28T05:48:09.412Z,99768.50
2022-08-28T05:50:38.440Z,99760.31
2022-08-28T05:53:05.885Z,99756.09
2022-08-28T05:55:32.493Z,99751.31
2022-08-28T05:58:19.003Z,99756.31
2022-08-28T06:00:45.607Z,99753.69
2022-08-28T06:03:12.144Z,99763.19
2022-08-28T06:05:38.680Z,99758.13
2022-08-28T06:08:05.283Z,99765.31
2022-08-28T06:10:31.849Z,99760.31
2022-08-28T06:12:58.972Z,99757.72
2022-08-28T06:15:26.968Z,99772.66
2022-08-28T06:17:53.747Z,99767.66
2022-08-28T06:20:20.897Z,99770.19
2022-08-28T06:22:50.439Z,99761.56
2022-08-28T06:25:17.425Z,99767.03
2022-08-28T06:27:43.972Z,99768.69
2022-08-28T06:30:10.986Z,99761.38
2022-08-28T06:32:37.526Z,99779.81
2022-08-28T06:35:04.470Z,99775.88
2022-08-28T06:37:31.051Z,45222.16
2022-08-28T06:39:57.641Z,99781.66
2022-08-28T06:42:24.245Z,99772.97
2022-08-28T06:44:50.781Z,99779.91
2022-08-28T06:47:17.308Z,99772.56
2022-08-28T06:49:43.828Z,99783.72
2022-08-28T06:52:10.449Z,99776.00
2022-08-28T06:54:37.002Z,99780.69
2022-08-28T06:57:05.423Z,99780.38
2022-08-28T06:59:31.982Z,99782.53
2022-08-28T07:01:59.218Z,99776.00
2022-08-28T07:04:25.816Z,99778.16
2022-08-28T07:06:54.557Z,99781.28
2022-08-28T07:09:22.116Z,99781.88
2022-08-28T07:11:48.748Z,99791.34
2022-08-28T07:14:15.595Z,99784.53
2022-08-28T07:16:42.574Z,99784.44
2022-08-28T07:19:12.002Z,99777.91
2022-08-28T07:21:41.772Z,99786.84
2022-08-28T07:24:10.574Z,99798.44
2022-08-28T07:26:38.166Z,99783.47
2022-08-28T07:29:10.297Z,99784.31
2022-08-28T07:31:41.747Z,99792.63
2022-08-28T07:34:09.874Z,99792.34
2022-08-28T07:36:36.723Z,99786.09
2022-08-28T07:39:05.282Z,99789.63
2022-08-28T07:41:35.426Z,99785.00
2022-08-28T07:44:20.882Z,99790.59
2022-08-28T07:46:47.511Z,99793.44
2022-08-28T07:49:17.197Z,99796.88
2022-08-28T07:51:44.081Z,99811.00
2022-08-28T07:54:15.443Z,99805.91
2022-08-28T07:56:44.463Z,99808.91
2022-08-28T07:59:11.572Z,99809.91
2022-08-28T08:01:42.931Z,99808.81
2022-08-28T08:04:12.725Z,99815.31
2022-08-28T08:06:41.016Z,99805.53
2022-08-28T08:09:11.720Z,99805.91
2022-08-28T08:11:38.341Z,99801.03
2022-08-28T08:14:06.202Z,99803.88
2022-08-28T08:16:35.885Z,99809.97
2022-08-28T08:19:03.396Z,99803.59
2022-08-28T08:21:31.005Z,99810.34
2022-08-28T08:23:58.455Z,99816.22
2022-08-28T08:26:28.282Z,99817.31
2022-08-28T08:28:56.101Z,99815.72
2022-08-28T08:31:27.272Z,99824.66
2022-08-28T08:33:57.759Z,99824.53
2022-08-28T08:36:28.346Z,99827.28
2022-08-28T08:38:59.272Z,99828.06
2022-08-28T08:41:30.984Z,99824.63
2022-08-28T08:44:03.481Z,99822.97
2022-08-28T08:46:51.815Z,99830.59
2022-08-28T08:49:23.500Z,99814.13
2022-08-28T08:52:26.396Z,99830.50
2022-08-28T08:55:16.659Z,99840.75
2022-08-28T08:57:46.110Z,99840.66
2022-08-28T09:00:16.756Z,99835.28
2022-08-28T09:02:58.797Z,99832.34
2022-08-28T09:05:52.463Z,99837.50
2022-08-28T09:08:27.716Z,99839.34
2022-08-28T09:11:04.854Z,99838.72
2022-08-28T09:14:05.110Z,99844.84
2022-08-28T09:16:42.494Z,99832.75
2022-08-28T09:19:12.011Z,99835.47
2022-08-28T09:21:44.241Z,99844.63
2022-08-28T09:24:19.984Z,99837.72
2022-08-28T09:27:04.824Z,99842.41
2022-08-28T09:29:34.070Z,99846.03
2022-08-28T09:32:30.989Z,99850.91
2022-08-28T09:35:18.989Z,99841.66
2022-08-28T09:37:45.564Z,99844.13
2022-08-28T09:40:21.426Z,99842.47
2022-08-28T09:43:30.045Z,99851.41
2022-08-28T09:46:03.191Z,99848.50
2022-08-28T09:48:41.421Z,99837.84
2022-08-28T09:51:30.612Z,99845.91
2022-08-28T09:54:03.238Z,99850.03
2022-08-28T09:56:39.973Z,99848.56
2022-08-28T09:59:10.392Z,99852.09
2022-08-28T10:01:55.412Z,99843.47
2022-08-28T10:04:41.558Z,99848.69
2022-08-28T10:07:16.922Z,99854.38
2022-08-28T10:10:02.304Z,99850.34
2022-08-28T10:12:59.655Z,99847.63
2022-08-28T10:16:00.264Z,99853.84
2022-08-28T10:18:44.436Z,99846.25
2022-08-28T10:21:47.909Z,99854.06
2022-08-28T10:24:52.359Z,99853.53
2022-08-28T10:27:38.927Z,99858.34
2022-08-28T10:30:16.365Z,99858.28
2022-08-28T10:33:00.856Z,99861.56
2022-08-28T10:35:52.151Z,99860.47
2022-08-28T10:38:23.879Z,99859.84
2022-08-28T10:40:59.817Z,99859.06
2022-08-28T10:43:34.457Z,99860.13
2022-08-28T10:46:12.237Z,99847.75
2022-08-28T10:48:48.255Z,99860.94
2022-08-28T10:51:37.632Z,99855.69
2022-08-28T10:54:27.528Z,99863.78
2022-08-28T10:57:00.577Z,99858.94
2022-08-28T10:59:31.881Z,99861.31
2022-08-28T11:01:59.727Z,99860.56
2022-08-28T11:04:29.354Z,99852.81
2022-08-28T11:07:06.483Z,99858.34
2022-08-28T11:09:35.445Z,99852.84
2022-08-28T11:12:04.509Z,99850.50
2022-08-28T11:14:47.728Z,99861.38
2022-08-28T11:17:30.566Z,99865.94
2022-08-28T11:20:09.803Z,99862.31
2022-08-28T11:22:46.043Z,99864.19
2022-08-28T11:25:12.841Z,99869.88
2022-08-28T11:27:40.925Z,99864.13
2022-08-28T11:30:11.041Z,99871.75
2022-08-28T11:32:43.567Z,99865.78
2022-08-28T11:35:38.307Z,99862.16
2022-08-28T11:38:05.787Z,99862.44
2022-08-28T11:40:32.368Z,99874.69
2022-08-28T11:43:16.210Z,99876.03
2022-08-28T11:45:45.770Z,99870.53
2022-08-28T11:48:28.556Z,99872.94
2022-08-28T11:50:57.218Z,99880.06
2022-08-28T11:53:51.670Z,99877.00
2022-08-28T11:56:33.331Z,99879.75
2022-08-28T11:59:11.996Z,99847.28
2022-08-28T12:01:39.766Z,99869.31
2022-08-28T12:04:13.608Z,99869.31
2022-08-28T12:07:11.526Z,68515.09
2022-08-28T12:09:47.476Z,68515.09
2022-08-28T12:12:22.960Z,68515.09
2022-08-28T12:14:55.417Z,68515.09
2022-08-28T12:17:21.871Z,68515.09
2022-08-28T12:20:10.368Z,68515.09
2022-08-28T12:22:47.256Z,68515.09
2022-08-28T12:25:25.250Z,68515.09
2022-08-28T12:27:53.078Z,68515.09
2022-08-28T12:30:33.300Z,68515.09
2022-08-28T12:33:13.815Z,68515.09
2022-08-28T12:35:43.714Z,68515.09
2022-08-28T12:38:20.705Z,68515.09
2022-08-28T12:40:50.845Z,68515.09
2022-08-28T12:43:26.165Z,68515.09
2022-08-28T12:45:57.294Z,68515.09
2022-08-28T12:48:33.584Z,68515.09
2022-08-28T12:51:06.585Z,68515.09
2022-08-28T12:53:43.665Z,68515.09
2022-08-28T12:56:13.139Z,68515.09
2022-08-28T12:58:41.522Z,68515.09
2022-08-28T13:01:23.315Z,68515.09
2022-08-28T13:03:56.990Z,68515.09
2022-08-28T13:06:30.449Z,68515.09
2022-08-28T13:09:18.784Z,68515.09
2022-08-28T13:11:51.655Z,68515.09
2022-08-28T13:14:46.238Z,68515.09
2022-08-28T13:17:15.103Z,99922.69
2022-08-28T13:19:42.019Z,99921.75
2022-08-28T13:22:32.633Z,99921.88
2022-08-28T13:25:01.326Z,99928.00
2022-08-28T13:27:29.076Z,99925.69
2022-08-28T13:30:01.180Z,99929.03
2022-08-28T13:32:31.236Z,99937.78
2022-08-28T13:35:28.061Z,99938.44
2022-08-28T13:37:55.803Z,99939.22
2022-08-28T13:40:57.435Z,99938.31
2022-08-28T13:43:27.275Z,99942.25
2022-08-28T13:45:54.191Z,99952.84
2022-08-28T13:48:26.185Z,99944.47
2022-08-28T13:51:14.227Z,99945.16
2022-08-28T13:53:48.202Z,99941.97
2022-08-28T13:56:16.449Z,99949.19
2022-08-28T13:58:43.772Z,99948.63
2022-08-28T14:01:11.322Z,99948.47
2022-08-28T14:03:38.874Z,99949.25
2022-08-28T14:06:07.823Z,99951.16
2022-08-28T14:08:34.628Z,99962.00
2022-08-28T14:11:01.793Z,99955.09
2022-08-28T14:13:28.559Z,99952.25
2022-08-28T14:15:56.678Z,68515.09
2022-08-28T14:18:24.961Z,99949.75
2022-08-28T14:20:52.973Z,99957.47
2022-08-28T14:23:19.737Z,99958.09
2022-08-28T14:25:47.542Z,99954.50
2022-08-28T14:28:15.188Z,99957.28
2022-08-28T14:30:46.635Z,99964.06
2022-08-28T14:33:18.686Z,99964.06
2022-08-28T14:35:48.808Z,99959.50
2022-08-28T14:38:15.613Z,99964.69
2022-08-28T14:40:44.059Z,99968.66
2022-08-28T14:43:13.349Z,99970.69
2022-08-28T14:45:46.253Z,99969.41
2022-08-28T14:48:14.787Z,99964.84
2022-08-28T14:50:44.010Z,99971.78
2022-08-28T14:53:11.851Z,99967.22
2022-08-28T14:55:46.653Z,99962.81
2022-08-28T14:58:13.936Z,99967.09
2022-08-28T15:00:50.291Z,99974.47
2022-08-28T15:03:18.619Z,99963.16
2022-08-28T15:05:45.473Z,99977.28
2022-08-28T15:08:15.433Z,99968.94
2022-08-28T15:10:43.140Z,99971.78
2022-08-28T15:13:11.061Z,99969.75
2022-08-28T15:15:39.626Z,99955.75
2022-08-28T15:18:07.393Z,99964.41
2022-08-28T15:20:42.660Z,99968.31
2022-08-28T15:23:10.122Z,99891.56
2022-08-28T15:25:36.902Z,99973.84
2022-08-28T15:28:03.952Z,99958.41
2022-08-28T15:30:30.674Z,99964.56
2022-08-28T15:32:58.113Z,99959.19
2022-08-28T15:35:24.724Z,99967.38
2022-08-28T15:37:51.546Z,99958.41
2022-08-28T15:40:36.769Z,99953.69
2022-08-28T15:43:03.368Z,99951.31
2022-08-28T15:45:29.971Z,99962.81
2022-08-28T15:47:58.202Z,99954.56
2022-08-28T15:50:24.750Z,99953.06
2022-08-28T15:52:52.364Z,99963.75
2022-08-28T15:55:20.129Z,99970.31
2022-08-28T15:57:46.877Z,99964.06
2022-08-28T16:00:14.097Z,99973.91
2022-08-28T16:02:40.621Z,99976.63
2022-08-28T16:05:08.040Z,99983.88
2022-08-28T16:07:34.727Z,99972.19
2022-08-28T16:10:03.068Z,99977.84
2022-08-28T16:12:29.738Z,99989.50
2022-08-28T16:14:56.310Z,99964.81
2022-08-28T16:17:22.941Z,99982.28
2022-08-28T16:19:49.541Z,99981.66
2022-08-28T16:22:16.475Z,99986.22
2022-08-28T16:24:44.571Z,99986.97
2022-08-28T16:27:15.348Z,99993.28
2022-08-28T16:29:43.546Z,99996.84
2022-08-28T16:32:11.819Z,100003.19
2022-08-28T16:34:38.720Z,99999.97
2022-08-28T16:37:08.038Z,100004.28
2022-08-28T16:39:35.484Z,99990.75
2022-08-28T16:42:02.183Z,100003.97
2022-08-28T16:44:28.756Z,99997.66
2022-08-28T16:46:56.407Z,100007.44
2022-08-28T16:49:23.820Z,100010.59
2022-08-28T16:51:50.547Z,99994.56
2022-08-28T16:54:21.486Z,100000.34
2022-08-28T16:56:48.285Z,99996.13
2022-08-28T16:59:17.967Z,99999.84
2022-08-28T17:01:44.662Z,99931.84
2022-08-28T17:04:12.329Z,99991.97
2022-08-28T17:06:40.063Z,100002.97
2022-08-28T17:09:06.831Z,99997.63
2022-08-28T17:11:33.582Z,99998.09
2022-08-28T17:14:00.366Z,99998.88
2022-08-28T17:16:27.614Z,100002.91
2022-08-28T17:18:54.306Z,100007.50
2022-08-28T17:21:40.817Z,100013.75
2022-08-28T17:24:09.505Z,100013.75
2022-08-28T17:26:36.073Z,100011.81
2022-08-28T17:29:03.090Z,100021.47
2022-08-28T17:31:30.049Z,68515.09
2022-08-28T17:33:56.895Z,68515.09
2022-08-28T17:36:33.218Z,68515.09
2022-08-28T17:39:02.356Z,68515.09
2022-08-28T17:41:28.957Z,68515.09
2022-08-28T17:43:55.586Z,68515.09
2022-08-28T17:46:22.652Z,68515.09
2022-08-28T17:48:55.919Z,68515.09
2022-08-28T17:51:33.197Z,68515.09
2022-08-28T17:54:16.758Z,68515.09
2022-08-28T17:56:44.137Z,68515.09
2022-08-28T17:59:12.362Z,68515.09
2022-08-28T18:01:40.126Z,68515.09
2022-08-28T18:04:06.939Z,68515.09
2022-08-28T18:06:34.000Z,68515.09
2022-08-28T18:09:01.172Z,68515.09
2022-08-28T18:11:28.424Z,68515.09
2022-08-28T18:13:55.081Z,68515.09
2022-08-28T18:16:21.732Z,68515.09
2022-08-28T18:18:48.472Z,68515.09
2022-08-28T18:21:15.246Z,68515.09
2022-08-28T18:23:41.986Z,68515.09
2022-08-28T18:26:09.319Z,68515.09
2022-08-28T18:28:36.709Z,68515.09
2022-08-28T18:31:05.783Z,68515.09
2022-08-28T18:33:33.774Z,68515.09
2022-08-28T18:36:00.397Z,68515.09
2022-08-28T18:38:34.940Z,68515.09
2022-08-28T18:41:04.245Z,68515.09
2022-08-28T18:43:31.440Z,68515.09
2022-08-28T18:45:59.591Z,68515.09
2022-08-28T18:48:26.182Z,68515.09
2022-08-28T18:50:52.846Z,68515.09
2022-08-28T18:53:21.467Z,68515.09
2022-08-28T18:55:51.071Z,68515.09
2022-08-28T18:58:19.463Z,68515.09
2022-08-28T19:00:46.088Z,68515.09
2022-08-28T19:03:13.222Z,68515.09
2022-08-28T19:05:41.429Z,68515.09
2022-08-28T19:08:08.076Z,68515.09
2022-08-28T19:10:36.924Z,68515.09
2022-08-28T19:13:04.886Z,68515.09
2022-08-28T19:15:32.190Z,68515.09
2022-08-28T19:18:00.454Z,68515.09
2022-08-28T19:20:28.267Z,68515.09
2022-08-28T19:22:56.197Z,68515.09
2022-08-28T19:25:28.619Z,68515.09
2022-08-28T19:28:01.428Z,68515.09
2022-08-28T19:30:33.976Z,68515.09
2022-08-28T19:33:02.875Z,68515.09
2022-08-28T19:35:29.613Z,68515.09
2022-08-28T19:37:56.785Z,68515.09
2022-08-28T19:40:23.997Z,68515.09
2022-08-28T19:42:50.993Z,68515.09
2022-08-28T19:45:18.491Z,68515.09
2022-08-28T19:47:45.763Z,68515.09
2022-08-28T19:50:14.509Z,68515.09
2022-08-28T19:52:43.377Z,68515.09
2022-08-28T19:55:17.442Z,68515.09
2022-08-28T19:57:44.119Z,68515.09
2022-08-28T20:00:11.558Z,68515.09
2022-08-28T20:02:38.245Z,68515.09
2022-08-28T20:05:05.522Z,68515.09
2022-08-28T20:07:32.120Z,68515.09
2022-08-28T20:09:58.839Z,68515.09
2022-08-28T20:12:25.385Z,68515.09
2022-08-28T20:14:53.379Z,68515.09
2022-08-28T20:17:20.054Z,68515.09
2022-08-28T20:19:47.718Z,68515.09
2022-08-28T20:22:15.259Z,68515.09
2022-08-28T20:24:42.182Z,68515.09
2022-08-28T20:27:08.967Z,68515.09
2022-08-28T20:29:36.052Z,68515.09
2022-08-28T20:32:03.444Z,68515.09
2022-08-28T20:34:29.963Z,68515.09
2022-08-28T20:36:56.522Z,68515.09
2022-08-28T20:39:23.397Z,68515.09
2022-08-28T20:41:50.449Z,68515.09
2022-08-28T20:44:19.063Z,68515.09
2022-08-28T20:46:51.204Z,100160.03
2022-08-28T20:49:21.728Z,100168.22
2022-08-28T20:51:54.543Z,100166.38
2022-08-28T20:54:24.098Z,100170.00
2022-08-28T20:56:52.084Z,100170.25
2022-08-28T20:59:19.462Z,100172.63
2022-08-28T21:01:46.373Z,100170.19
2022-08-28T21:04:12.913Z,100173.94
2022-08-28T21:06:39.595Z,100164.88
2022-08-28T21:09:06.111Z,100174.28
2022-08-28T21:11:32.624Z,100172.69
2022-08-28T21:13:59.366Z,100174.22
2022-08-28T21:16:26.132Z,100192.22
2022-08-28T21:19:12.120Z,100179.31
2022-08-28T21:21:39.437Z,100182.22
2022-08-28T21:24:08.113Z,100189.69
2022-08-28T21:26:37.291Z,100177.34
2022-08-28T21:29:07.109Z,100186.56
2022-08-28T21:31:34.435Z,100194.16
2022-08-28T21:34:01.080Z,68515.09
2022-08-28T21:36:28.482Z,100184.81
2022-08-28T21:38:57.471Z,100200.28
2022-08-28T21:41:24.411Z,100183.09
2022-08-28T21:43:50.977Z,100202.13
2022-08-28T21:46:17.594Z,100187.44
2022-08-28T21:48:48.664Z,100205.72
2022-08-28T21:51:17.819Z,100193.19
2022-08-28T21:53:44.782Z,100197.78
2022-08-28T21:56:15.579Z,100208.34
2022-08-28T21:58:42.161Z,100200.78
2022-08-28T22:01:12.672Z,100213.00
2022-08-28T22:03:39.795Z,100201.78
2022-08-28T22:06:10.897Z,100216.72
2022-08-28T22:08:37.891Z,100209.94
2022-08-28T22:11:04.608Z,100202.97
2022-08-28T22:13:31.185Z,100212.53
2022-08-28T22:15:57.732Z,100215.94
2022-08-28T22:18:24.392Z,100224.28
2022-08-28T22:21:19.546Z,100222.38
2022-08-28T22:23:47.476Z,100221.00
2022-08-28T22:26:20.362Z,100215.94
2022-08-28T22:28:47.359Z,100227.34
2022-08-28T22:31:14.399Z,100231.75
2022-08-28T22:33:42.973Z,68515.09
2022-08-28T22:36:10.845Z,68515.09
2022-08-28T22:38:39.185Z,68515.09
2022-08-28T22:41:06.942Z,68515.09
2022-08-28T22:43:33.579Z,68515.09
2022-08-28T22:46:00.296Z,68515.09
2022-08-28T22:48:27.079Z,68515.09
2022-08-28T22:51:08.660Z,68515.09
2022-08-28T22:53:36.581Z,68515.09
2022-08-28T22:56:03.503Z,68515.09
2022-08-28T22:58:31.894Z,68515.09
2022-08-28T23:01:00.944Z,68515.09
2022-08-28T23:03:28.644Z,68515.09
2022-08-28T23:05:55.394Z,68515.09
2022-08-28T23:08:22.023Z,68515.09
2022-08-28T23:10:58.979Z,68515.09
2022-08-28T23:13:26.320Z,68515.09
2022-08-28T23:15:53.077Z,100229.81
2022-08-28T23:18:21.117Z,100237.97
2022-08-28T23:20:47.743Z,100241.00
2022-08-28T23:23:17.403Z,100240.66
2022-08-28T23:25:44.081Z,100237.38
2022-08-28T23:28:10.869Z,100233.44
2022-08-28T23:30:39.033Z,100242.56
2022-08-28T23:33:08.423Z,100240.22
2022-08-28T23:35:35.950Z,100243.69
2022-08-28T23:38:04.482Z,100249.91
2022-08-28T23:40:34.004Z,100253.81
2022-08-28T23:43:01.013Z,100255.31
2022-08-28T23:45:27.631Z,100240.53
2022-08-28T23:47:54.849Z,100252.53
2022-08-28T23:50:23.413Z,100255.75
2022-08-28T23:52:50.864Z,100251.56
2022-08-28T23:55:19.160Z,100244.53
2022-08-28T23:57:46.007Z,100247.53
